createdAt,value
2018-08-04T00:01:42.348Z,2.03
2018-08-04T00:04:10.388Z,2.37
2018-08-04T00:06:38.389Z,2.30
2018-08-04T00:09:09.644Z,2.50
2018-08-04T00:11:37.729Z,2.00
2018-08-04T00:14:05.777Z,2.33
2018-08-04T00:16:34.072Z,2.40
2018-08-04T00:19:02.157Z,2.53
2018-08-04T00:21:30.196Z,2.30
2018-08-04T00:23:58.360Z,2.27
2018-08-04T00:26:31.296Z,2.60
2018-08-04T00:29:00.220Z,2.20
2018-08-04T00:31:28.792Z,2.37
2018-08-04T00:33:57.013Z,2.83
2018-08-04T00:36:25.286Z,2.40
2018-08-04T00:38:53.556Z,2.60
2018-08-04T00:41:21.699Z,3.37
2018-08-04T00:43:49.992Z,2.67
2018-08-04T00:46:18.264Z,3.20
2018-08-04T00:48:46.330Z,2.60
2018-08-04T00:51:14.512Z,3.50
2018-08-04T00:53:42.585Z,3.50
2018-08-04T00:56:10.852Z,2.93
2018-08-04T00:58:39.028Z,2.70
2018-08-04T01:01:07.069Z,3.30
2018-08-04T01:03:35.367Z,2.77
2018-08-04T01:06:03.381Z,3.33
2018-08-04T01:08:31.433Z,3.50
2018-08-04T01:10:59.432Z,3.00
2018-08-04T01:13:27.442Z,3.60
2018-08-04T01:15:55.446Z,3.40
2018-08-04T01:18:23.477Z,4.00
2018-08-04T01:20:51.469Z,3.00
2018-08-04T01:23:19.465Z,3.70
2018-08-04T01:25:47.456Z,3.50
2018-08-04T01:28:15.509Z,3.40
2018-08-04T01:30:43.516Z,3.00
2018-08-04T01:33:11.518Z,3.00
2018-08-04T01:35:39.543Z,4.10
2018-08-04T01:38:08.551Z,3.50
2018-08-04T01:40:36.541Z,4.27
2018-08-04T01:43:05.667Z,4.00
2018-08-04T01:45:33.701Z,3.80
2018-08-04T01:48:01.696Z,4.00
2018-08-04T01:50:29.740Z,3.67
2018-08-04T01:52:57.737Z,4.27
2018-08-04T01:55:25.759Z,4.50
2018-08-04T01:57:53.782Z,3.60
2018-08-04T02:00:21.866Z,4.40
2018-08-04T02:02:49.889Z,4.63
2018-08-04T02:05:17.901Z,4.70
2018-08-04T02:07:45.903Z,4.40
2018-08-04T02:10:13.897Z,3.73
2018-08-04T02:12:41.901Z,4.27
2018-08-04T02:15:09.928Z,4.60
2018-08-04T02:17:37.969Z,4.60
2018-08-04T02:20:06.037Z,3.97
2018-08-04T02:22:34.148Z,3.90
2018-08-04T02:25:02.148Z,3.70
2018-08-04T02:27:30.184Z,4.57
2018-08-04T02:29:58.194Z,3.97
2018-08-04T02:32:26.193Z,3.90
2018-08-04T02:34:54.198Z,3.00
2018-08-04T02:37:22.205Z,3.60
2018-08-04T02:39:50.282Z,3.53
2018-08-04T02:42:18.317Z,4.27
2018-08-04T02:44:46.323Z,3.30
2018-08-04T02:47:14.349Z,3.80
2018-08-04T02:49:42.381Z,3.50
2018-08-04T02:52:10.396Z,3.50
2018-08-04T02:54:38.429Z,3.00
2018-08-04T02:57:06.438Z,3.53
2018-08-04T02:59:34.429Z,2.90
2018-08-04T03:02:02.437Z,3.07
2018-08-04T03:04:30.417Z,2.77
2018-08-04T03:06:58.450Z,4.30
2018-08-04T03:09:26.460Z,3.17
2018-08-04T03:11:54.459Z,2.83
2018-08-04T03:14:22.536Z,3.50
2018-08-04T03:16:50.580Z,2.40
2018-08-04T03:19:18.611Z,2.70
2018-08-04T03:21:46.675Z,2.33
2018-08-04T03:24:14.684Z,2.57
2018-08-04T03:26:42.664Z,3.20
2018-08-04T03:29:10.644Z,2.77
2018-08-04T03:31:38.681Z,2.30
2018-08-04T03:34:06.792Z,2.70
2018-08-04T03:36:35.090Z,2.60
2018-08-04T03:39:03.347Z,2.23
2018-08-04T03:41:31.399Z,3.30
2018-08-04T03:43:59.396Z,2.73
2018-08-04T03:46:27.441Z,3.13
2018-08-04T03:48:55.545Z,2.70
2018-08-04T03:51:23.569Z,2.40
2018-08-04T03:53:51.612Z,3.10
2018-08-04T03:56:19.600Z,2.40
2018-08-04T03:58:47.615Z,2.27
2018-08-04T04:01:15.592Z,3.10
2018-08-04T04:03:43.612Z,2.87
2018-08-04T04:06:11.717Z,2.97
2018-08-04T04:08:39.713Z,2.97
2018-08-04T04:11:07.719Z,2.90
2018-08-04T04:13:35.748Z,3.77
2018-08-04T04:16:03.790Z,3.00
2018-08-04T04:18:31.777Z,3.97
2018-08-04T04:20:59.778Z,3.80
2018-08-04T04:23:27.782Z,3.87
2018-08-04T04:25:55.777Z,4.00
2018-08-04T04:28:23.828Z,3.00
2018-08-04T04:30:51.849Z,4.00
2018-08-04T04:33:19.864Z,3.70
2018-08-04T04:35:47.852Z,4.30
2018-08-04T04:38:15.878Z,3.70
2018-08-04T04:40:43.925Z,3.33
2018-08-04T04:43:11.921Z,3.20
2018-08-04T04:45:39.921Z,3.00
2018-08-04T04:48:07.968Z,2.97
2018-08-04T04:50:35.980Z,3.63
2018-08-04T04:53:04.010Z,3.10
2018-08-04T04:55:32.077Z,2.50
2018-08-04T04:58:00.021Z,2.37
2018-08-04T05:00:28.096Z,2.23
2018-08-04T05:02:56.168Z,3.13
2018-08-04T05:05:24.140Z,2.27
2018-08-04T05:07:52.149Z,2.80
2018-08-04T05:10:20.141Z,2.50
2018-08-04T05:12:48.158Z,2.10
2018-08-04T05:15:16.144Z,2.33
2018-08-04T05:17:44.169Z,2.40
2018-08-04T05:20:12.241Z,2.63
2018-08-04T05:22:40.241Z,2.20
2018-08-04T05:25:08.382Z,2.40
2018-08-04T05:27:36.364Z,2.70
2018-08-04T05:30:05.640Z,2.60
2018-08-04T05:32:33.621Z,2.23
2018-08-04T05:35:01.606Z,2.70
2018-08-04T05:37:29.655Z,2.17
2018-08-04T05:39:57.629Z,2.33
2018-08-04T05:42:25.617Z,2.40
2018-08-04T05:44:53.620Z,2.13
2018-08-04T05:47:21.631Z,2.80
2018-08-04T05:49:49.620Z,2.37
2018-08-04T05:52:17.617Z,1.87
2018-08-04T05:54:45.620Z,2.10
2018-08-04T05:57:13.616Z,2.10
2018-08-04T05:59:41.641Z,2.10
2018-08-04T06:02:09.632Z,2.03
2018-08-04T06:04:37.665Z,2.60
2018-08-04T06:07:05.658Z,2.10
2018-08-04T06:09:33.688Z,2.77
2018-08-04T06:12:01.682Z,2.03
2018-08-04T06:14:29.669Z,2.80
2018-08-04T06:16:57.668Z,2.37
2018-08-04T06:19:25.688Z,2.40
2018-08-04T06:21:53.820Z,2.40
2018-08-04T06:24:21.813Z,1.97
2018-08-04T06:26:49.839Z,1.90
2018-08-04T06:29:17.861Z,2.30
2018-08-04T06:31:45.860Z,1.87
2018-08-04T06:34:13.868Z,2.20
2018-08-04T06:36:41.952Z,2.10
2018-08-04T06:39:10.053Z,2.30
2018-08-04T06:41:38.128Z,2.23
2018-08-04T06:44:07.113Z,2.33
2018-08-04T06:46:35.112Z,2.30
2018-08-04T06:49:03.165Z,2.03
2018-08-04T06:51:32.237Z,2.47
2018-08-04T06:54:00.299Z,2.67
2018-08-04T06:56:28.313Z,2.37
2018-08-04T06:58:56.344Z,2.83
2018-08-04T07:01:24.420Z,2.90
2018-08-04T07:03:52.620Z,3.30
2018-08-04T07:06:20.658Z,2.50
2018-08-04T07:08:48.658Z,2.67
2018-08-04T07:11:16.672Z,2.50
2018-08-04T07:13:44.689Z,2.80
2018-08-04T07:16:12.749Z,2.67
2018-08-04T07:18:41.881Z,2.70
2018-08-04T07:21:09.896Z,3.20
2018-08-04T07:23:37.924Z,3.10
2018-08-04T07:26:05.996Z,2.77
2018-08-04T07:28:33.990Z,2.37
2018-08-04T07:31:02.001Z,2.47
2018-08-04T07:33:30.068Z,2.30
2018-08-04T07:35:58.150Z,2.70
2018-08-04T07:38:26.236Z,3.30
2018-08-04T07:40:54.338Z,2.77
2018-08-04T07:43:22.392Z,2.40
2018-08-04T07:45:50.450Z,2.20
2018-08-04T07:48:18.485Z,2.27
2018-08-04T07:50:46.574Z,2.27
2018-08-04T07:53:14.560Z,2.07
2018-08-04T07:55:42.575Z,2.20
2018-08-04T07:58:10.637Z,2.60
2018-08-04T08:00:39.169Z,2.60
2018-08-04T08:03:07.224Z,2.87
2018-08-04T08:05:35.229Z,3.33
2018-08-04T08:08:03.296Z,2.97
2018-08-04T08:10:31.323Z,2.87
2018-08-04T08:12:59.332Z,2.60
2018-08-04T08:15:27.396Z,2.97
2018-08-04T08:17:55.584Z,3.10
2018-08-04T08:20:23.675Z,2.23
2018-08-04T08:22:51.713Z,2.60
2018-08-04T08:25:19.868Z,2.50
2018-08-04T08:27:47.853Z,3.10
2018-08-04T08:30:16.383Z,2.80
2018-08-04T08:32:44.463Z,2.60
2018-08-04T08:35:12.612Z,2.07
2018-08-04T08:37:40.980Z,2.13
2018-08-04T08:40:09.376Z,1.67
2018-08-04T08:42:37.400Z,1.47
2018-08-04T08:45:07.240Z,1.77
2018-08-04T08:47:35.361Z,1.50
2018-08-04T08:50:04.700Z,1.73
2018-08-04T08:52:32.772Z,1.80
2018-08-04T08:55:00.808Z,2.23
2018-08-04T08:57:28.821Z,1.70
2018-08-04T08:59:56.812Z,1.80
2018-08-04T09:02:24.892Z,1.80
2018-08-04T09:04:52.938Z,1.70
2018-08-04T09:07:21.004Z,2.03
2018-08-04T09:09:50.092Z,1.63
2018-08-04T09:12:18.168Z,1.67
2018-08-04T09:14:47.256Z,2.60
2018-08-04T09:17:15.368Z,2.40
2018-08-04T09:19:43.370Z,1.80
2018-08-04T09:22:11.412Z,2.50
2018-08-04T09:24:39.454Z,1.90
2018-08-04T09:27:07.553Z,1.70
2018-08-04T09:29:35.583Z,1.93
2018-08-04T09:32:03.584Z,1.80
2018-08-04T09:34:31.576Z,2.20
2018-08-04T09:36:59.568Z,2.00
2018-08-04T09:39:27.603Z,1.90
2018-08-04T09:41:55.678Z,2.07
2018-08-04T09:44:23.716Z,2.37
2018-08-04T09:46:51.716Z,2.00
2018-08-04T09:49:19.736Z,2.43
2018-08-04T09:51:48.737Z,2.30
2018-08-04T09:54:16.758Z,2.23
2018-08-04T09:56:44.744Z,2.70
2018-08-04T09:59:12.755Z,2.40
2018-08-04T10:01:40.842Z,2.20
2018-08-04T10:04:09.024Z,2.37
2018-08-04T10:06:37.105Z,1.93
2018-08-04T10:09:07.827Z,2.10
2018-08-04T10:11:35.923Z,2.07
2018-08-04T10:14:04.484Z,2.67
2018-08-04T10:16:32.479Z,2.30
2018-08-04T10:19:00.532Z,2.50
2018-08-04T10:21:28.554Z,2.30
2018-08-04T10:23:56.567Z,2.17
2018-08-04T10:26:24.572Z,1.60
2018-08-04T10:28:52.565Z,2.10
2018-08-04T10:31:20.559Z,2.00
2018-08-04T10:33:48.564Z,2.10
2018-08-04T10:36:16.637Z,1.90
2018-08-04T10:38:44.624Z,2.00
2018-08-04T10:41:12.664Z,2.30
2018-08-04T10:43:40.682Z,1.77
2018-08-04T10:46:08.702Z,1.63
2018-08-04T10:48:36.704Z,1.93
2018-08-04T10:51:04.728Z,2.03
2018-08-04T10:53:32.732Z,1.53
2018-08-04T10:56:00.752Z,1.90
2018-08-04T10:58:28.769Z,1.60
2018-08-04T11:00:56.735Z,3.60
2018-08-04T11:03:24.732Z,7.13
2018-08-04T11:05:52.785Z,1.97
2018-08-04T11:08:20.765Z,1.60
2018-08-04T11:10:48.732Z,2.17
2018-08-04T11:13:16.784Z,1.70
2018-08-04T11:15:44.795Z,1.50
2018-08-04T11:18:12.800Z,1.70
2018-08-04T11:20:40.786Z,1.47
2018-08-04T11:23:08.797Z,1.37
2018-08-04T11:25:36.792Z,2.43
2018-08-04T11:28:05.107Z,2.37
2018-08-04T11:30:33.064Z,1.60
2018-08-04T11:33:01.077Z,1.97
2018-08-04T11:35:29.112Z,1.30
2018-08-04T11:37:57.097Z,1.40
2018-08-04T11:40:25.072Z,1.47
2018-08-04T11:42:53.115Z,1.50
2018-08-04T11:45:21.117Z,2.00
2018-08-04T11:47:49.157Z,1.60
2018-08-04T11:50:17.144Z,1.77
2018-08-04T11:52:45.141Z,1.53
2018-08-04T11:55:13.121Z,1.60
2018-08-04T11:57:41.122Z,1.40
2018-08-04T12:00:09.110Z,1.73
2018-08-04T12:02:37.113Z,1.60
2018-08-04T12:05:05.254Z,1.70
2018-08-04T12:07:33.278Z,1.50
2018-08-04T12:10:01.267Z,1.43
2018-08-04T12:12:29.243Z,1.60
2018-08-04T12:14:57.400Z,1.47
2018-08-04T12:17:25.457Z,1.73
2018-08-04T12:19:53.464Z,1.77
2018-08-04T12:22:21.930Z,1.70
2018-08-04T12:24:49.958Z,1.20
2018-08-04T12:27:17.928Z,1.33
2018-08-04T12:29:45.930Z,1.60
2018-08-04T12:32:14.013Z,1.80
2018-08-04T12:34:42.121Z,1.30
2018-08-04T12:37:10.096Z,1.27
2018-08-04T12:39:38.345Z,2.20
2018-08-04T12:42:06.344Z,1.30
2018-08-04T12:44:34.396Z,1.97
2018-08-04T12:47:02.408Z,1.40
2018-08-04T12:49:30.399Z,1.83
2018-08-04T12:51:58.374Z,1.63
2018-08-04T12:54:26.434Z,1.20
2018-08-04T12:56:54.348Z,2.13
2018-08-04T12:59:22.491Z,1.53
2018-08-04T13:01:50.476Z,1.40
2018-08-04T13:04:18.471Z,1.50
2018-08-04T13:06:46.477Z,1.50
2018-08-04T13:09:14.548Z,1.20
2018-08-04T13:11:42.687Z,1.37
2018-08-04T13:14:10.676Z,1.50
2018-08-04T13:16:38.662Z,0.93
2018-08-04T13:19:06.648Z,1.13
2018-08-04T13:21:34.612Z,1.40
2018-08-04T13:24:02.659Z,1.17
2018-08-04T13:26:30.633Z,0.97
2018-08-04T13:28:58.624Z,2.20
2018-08-04T13:31:26.597Z,1.27
2018-08-04T13:33:54.636Z,1.17
2018-08-04T13:36:22.648Z,1.20
2018-08-04T13:38:50.688Z,1.30
2018-08-04T13:41:18.693Z,1.30
2018-08-04T13:43:46.703Z,1.77
2018-08-04T13:46:14.802Z,1.40
2018-08-04T13:48:42.783Z,1.40
2018-08-04T13:51:10.755Z,1.10
2018-08-04T13:53:38.762Z,1.17
2018-08-04T13:56:07.090Z,1.40
2018-08-04T13:58:35.281Z,1.60
2018-08-04T14:01:03.265Z,1.30
2018-08-04T14:03:31.272Z,1.30
2018-08-04T14:05:59.361Z,1.10
2018-08-04T14:08:27.284Z,1.30
2018-08-04T14:10:55.277Z,1.30
2018-08-04T14:13:23.273Z,1.17
2018-08-04T14:15:51.325Z,1.43
2018-08-04T14:18:19.324Z,1.30
2018-08-04T14:20:47.411Z,1.30
2018-08-04T14:23:15.388Z,1.30
2018-08-04T14:25:43.456Z,1.33
2018-08-04T14:28:11.428Z,1.17
2018-08-04T14:30:39.505Z,1.50
2018-08-04T14:33:07.552Z,2.37
2018-08-04T14:35:35.544Z,1.23
2018-08-04T14:38:03.592Z,1.40
2018-08-04T14:40:31.603Z,1.23
2018-08-04T14:43:00.668Z,1.60
2018-08-04T14:45:28.661Z,1.40
2018-08-04T14:47:56.706Z,1.40
2018-08-04T14:50:24.969Z,1.50
2018-08-04T14:52:53.283Z,2.20
2018-08-04T14:55:21.672Z,1.63
2018-08-04T14:57:49.748Z,1.90
2018-08-04T15:00:17.744Z,1.80
2018-08-04T15:02:45.730Z,1.43
2018-08-04T15:05:13.769Z,1.50
2018-08-04T15:07:41.796Z,1.50
2018-08-04T15:10:09.857Z,1.43
2018-08-04T15:12:37.838Z,1.23
2018-08-04T15:15:06.613Z,1.57
2018-08-04T15:17:34.680Z,1.50
2018-08-04T15:20:02.696Z,1.50
2018-08-04T15:22:30.783Z,1.87
2018-08-04T15:24:58.877Z,1.33
2018-08-04T15:27:26.909Z,1.70
2018-08-04T15:29:54.973Z,1.87
2018-08-04T15:32:22.940Z,1.70
2018-08-04T15:34:50.960Z,1.33
2018-08-04T15:37:19.001Z,1.80
2018-08-04T15:39:47.000Z,1.87
2018-08-04T15:42:14.992Z,1.80
2018-08-04T15:44:43.287Z,1.60
2018-08-04T15:47:11.330Z,1.50
2018-08-04T15:49:40.055Z,1.90
2018-08-04T15:52:08.120Z,1.70
2018-08-04T15:54:36.104Z,1.60
2018-08-04T15:57:04.173Z,1.90
2018-08-04T15:59:32.613Z,1.40
2018-08-04T16:02:00.697Z,1.53
2018-08-04T16:04:28.688Z,1.60
2018-08-04T16:06:56.692Z,1.40
2018-08-04T16:09:24.680Z,1.77
2018-08-04T16:11:52.680Z,2.47
2018-08-04T16:14:20.666Z,1.50
2018-08-04T16:16:48.838Z,1.63
2018-08-04T16:21:58.073Z,2.67
2018-08-04T16:24:26.219Z,1.57
2018-08-04T16:26:54.177Z,1.87
2018-08-04T16:29:22.275Z,1.60
2018-08-04T16:31:50.261Z,1.90
2018-08-04T16:34:19.825Z,1.67
2018-08-04T16:36:47.808Z,1.23
2018-08-04T16:39:15.836Z,1.40
2018-08-04T16:41:44.042Z,1.70
2018-08-04T16:44:11.913Z,1.30
2018-08-04T16:46:39.916Z,1.47
2018-08-04T16:49:07.953Z,2.10
2018-08-04T16:51:36.065Z,1.70
2018-08-04T16:54:04.064Z,1.70
2018-08-04T16:56:32.051Z,1.63
2018-08-04T16:59:00.666Z,1.60
2018-08-04T17:01:28.692Z,1.47
2018-08-04T17:03:56.673Z,1.87
2018-08-04T17:06:24.706Z,1.80
2018-08-04T17:08:53.941Z,1.70
2018-08-04T17:11:25.413Z,2.13
2018-08-04T17:13:53.902Z,2.10
2018-08-04T17:16:22.255Z,1.83
2018-08-04T17:18:50.274Z,1.40
2018-08-04T17:21:18.316Z,1.80
2018-08-04T17:23:46.440Z,2.00
2018-08-04T17:26:14.514Z,1.60
2018-08-04T17:28:42.495Z,1.60
2018-08-04T17:31:10.504Z,1.60
2018-08-04T17:33:38.513Z,1.87
2018-08-04T17:36:06.534Z,1.90
2018-08-04T17:38:34.596Z,1.73
2018-08-04T17:41:02.673Z,1.60
2018-08-04T17:43:30.833Z,2.00
2018-08-04T17:45:58.852Z,1.53
2018-08-04T17:48:26.896Z,1.97
2018-08-04T17:50:54.972Z,2.00
2018-08-04T17:53:23.041Z,3.60
2018-08-04T17:55:51.120Z,1.83
2018-08-04T17:58:19.245Z,2.10
2018-08-04T18:00:47.234Z,1.57
2018-08-04T18:03:15.333Z,2.33
2018-08-04T18:05:43.348Z,2.10
2018-08-04T18:08:11.337Z,1.60
2018-08-04T18:10:39.416Z,2.07
2018-08-04T18:13:07.550Z,2.00
2018-08-04T18:15:35.568Z,2.37
2018-08-04T18:18:03.604Z,1.77
2018-08-04T18:20:31.604Z,1.87
2018-08-04T18:22:59.696Z,1.60
2018-08-04T18:25:27.881Z,1.50
2018-08-04T18:27:55.942Z,1.90
2018-08-04T18:30:24.327Z,1.67
2018-08-04T18:32:52.369Z,1.63
2018-08-04T18:35:20.585Z,1.60
2018-08-04T18:37:48.713Z,1.63
2018-08-04T18:40:16.725Z,1.37
2018-08-04T18:42:44.774Z,1.50
2018-08-04T18:45:12.782Z,2.07
2018-08-04T18:47:40.774Z,1.57
2018-08-04T18:50:08.822Z,1.60
2018-08-04T18:52:36.799Z,1.63
2018-08-04T18:55:04.791Z,1.30
2018-08-04T18:57:32.797Z,1.70
2018-08-04T19:00:00.884Z,1.57
2018-08-04T19:02:28.885Z,1.40
2018-08-04T19:04:56.891Z,1.70
2018-08-04T19:07:24.981Z,1.53
2018-08-04T19:09:52.976Z,1.40
2018-08-04T19:12:21.027Z,1.40
2018-08-04T19:14:49.073Z,1.50
2018-08-04T19:17:17.124Z,1.23
2018-08-04T19:19:45.117Z,1.67
2018-08-04T19:22:13.154Z,1.60
2018-08-04T19:24:41.153Z,1.43
2018-08-04T19:27:09.150Z,2.03
2018-08-04T19:29:37.164Z,1.60
2018-08-04T19:32:05.189Z,1.80
2018-08-04T19:34:33.197Z,1.63
2018-08-04T19:37:01.188Z,1.50
2018-08-04T19:39:29.196Z,1.57
2018-08-04T19:41:57.216Z,1.30
2018-08-04T19:44:25.220Z,1.40
2018-08-04T19:46:53.213Z,1.77
2018-08-04T19:49:21.233Z,1.30
2018-08-04T19:51:49.278Z,1.17
2018-08-04T19:54:17.277Z,1.20
2018-08-04T19:56:45.280Z,1.37
2018-08-04T19:59:13.290Z,1.37
2018-08-04T20:01:41.280Z,1.63
2018-08-04T20:04:09.347Z,1.60
2018-08-04T20:06:37.360Z,1.50
2018-08-04T20:09:07.745Z,1.20
2018-08-04T20:11:35.833Z,1.60
2018-08-04T20:14:03.856Z,1.60
2018-08-04T20:16:32.041Z,1.40
2018-08-04T20:19:00.215Z,1.50
2018-08-04T20:21:28.324Z,1.50
2018-08-04T20:23:57.472Z,1.57
2018-08-04T20:26:25.544Z,1.60
2018-08-04T20:28:53.957Z,2.03
2018-08-04T20:31:21.932Z,1.37
2018-08-04T20:33:49.932Z,1.60
2018-08-04T20:36:17.953Z,1.20
2018-08-04T20:38:45.960Z,1.53
2018-08-04T20:41:13.963Z,1.50
2018-08-04T20:43:42.001Z,1.77
2018-08-04T20:46:10.064Z,1.50
2018-08-04T20:48:38.089Z,1.50
2018-08-04T20:51:06.089Z,1.40
2018-08-04T20:53:34.092Z,1.50
2018-08-04T20:56:02.105Z,1.50
2018-08-04T20:58:30.168Z,2.40
2018-08-04T21:01:09.680Z,1.77
2018-08-04T21:03:37.716Z,1.20
2018-08-04T21:06:05.705Z,1.80
2018-08-04T21:08:33.721Z,1.23
2018-08-04T21:11:01.756Z,1.73
2018-08-04T21:13:29.808Z,1.70
2018-08-04T21:15:57.885Z,1.23
2018-08-04T21:18:25.850Z,2.00
2018-08-04T21:20:54.036Z,1.33
2018-08-04T21:23:22.104Z,1.47
2018-08-04T21:25:50.112Z,1.97
2018-08-04T21:28:18.118Z,1.57
2018-08-04T21:30:46.100Z,1.60
2018-08-04T21:33:14.103Z,1.53
2018-08-04T21:35:42.155Z,1.60
2018-08-04T21:38:10.139Z,1.60
2018-08-04T21:40:39.264Z,2.00
2018-08-04T21:43:07.384Z,1.80
2018-08-04T21:45:35.396Z,1.83
2018-08-04T21:48:03.376Z,1.50
2018-08-04T21:50:31.413Z,1.70
2018-08-04T21:52:59.428Z,1.53
2018-08-04T21:55:28.504Z,1.70
2018-08-04T21:57:56.624Z,2.17
2018-08-04T22:00:24.672Z,1.97
2018-08-04T22:02:58.299Z,1.90
2018-08-04T22:05:26.899Z,1.90
2018-08-04T22:08:08.659Z,2.10
2018-08-04T22:10:37.253Z,1.70
2018-08-04T22:13:05.408Z,1.60
2018-08-04T22:15:34.370Z,1.90
2018-08-04T22:18:02.474Z,2.20
2018-08-04T22:20:30.936Z,1.90
2018-08-04T22:22:59.008Z,1.60
2018-08-04T22:25:29.211Z,2.00
2018-08-04T22:27:57.804Z,2.20
2018-08-04T22:30:26.304Z,1.97
2018-08-04T22:32:54.356Z,1.80
2018-08-04T22:35:22.712Z,2.30
2018-08-04T22:37:50.788Z,1.93
2018-08-04T22:40:19.812Z,1.67
2018-08-04T22:42:48.892Z,1.90
2018-08-04T22:46:05.756Z,1.80
2018-08-04T22:48:34.153Z,2.43
2018-08-04T22:51:02.190Z,1.93
2018-08-04T22:53:30.358Z,2.47
2018-08-04T22:55:58.391Z,1.77
2018-08-04T22:58:26.400Z,1.90
2018-08-04T23:00:54.481Z,2.07
2018-08-04T23:03:22.512Z,2.23
2018-08-04T23:05:50.634Z,1.63
2018-08-04T23:08:18.633Z,2.03
2018-08-04T23:10:46.772Z,2.73
2018-08-04T23:13:15.280Z,2.10
2018-08-04T23:15:43.332Z,1.90
2018-08-04T23:18:11.573Z,1.93
2018-08-04T23:20:39.826Z,1.83
2018-08-04T23:23:08.923Z,2.33
2018-08-04T23:25:36.934Z,2.53
2018-08-04T23:28:05.029Z,1.50
2018-08-04T23:30:33.024Z,1.77
2018-08-04T23:34:05.173Z,2.20
2018-08-04T23:36:33.184Z,2.00
2018-08-04T23:39:01.191Z,2.20
2018-08-04T23:41:29.189Z,2.47
2018-08-04T23:43:57.193Z,2.10
2018-08-04T23:46:25.200Z,2.27
2018-08-04T23:48:53.301Z,2.80
2018-08-04T23:51:21.321Z,2.40
2018-08-04T23:53:49.456Z,2.70
2018-08-04T23:56:17.488Z,1.70
2018-08-04T23:58:45.505Z,2.37
